Spring Ranch, Nebraska
Current Conditions -  °F | °C
As of 11:53 AM on Saturday 20 Dec 2014 (Local Time) from KHSI Reporting Station
Haze Haze  
Wind Chill: 26°   Ceiling: 200
Heat Index: 32°   Visibility: 0.75mi
Dew Point: 28°   Wind: 6mph
Humidity: 85%   Direction: 190°S
Pressure: 30.04"   Gusts: NA
Location:  40.387°N, 98.1945°W
Report Text: KHSI 201753Z AUTO 19005KT 3/4SM BR OVC002 00/M02 A3004 RMK AO2 SLP190 I6002 T00001022 10011 21033 58007
Loading
Personal Weather Stations






























Interactive Weather Map New forecast layout! Learn more

10-Day Weather Forecast

Advertisements
Track Severe Weather on mobile